sensor_id;sensor_type;location;lat;lon;timestamp;pressure;altitude;pressure_sealevel;temperature;humidity
34500;BME280;20745;50.882;6.962;2023-03-13T00:01:52;99957.69;;;11.26;100.00
34500;BME280;20745;50.882;6.962;2023-03-13T00:04:18;99957.25;;;11.29;100.00
34500;BME280;20745;50.882;6.962;2023-03-13T00:06:45;99948.94;;;11.31;100.00
34500;BME280;20745;50.882;6.962;2023-03-13T00:09:14;99953.13;;;11.33;100.00
34500;BME280;20745;50.882;6.962;2023-03-13T00:11:42;99950.63;;;11.38;100.00
34500;BME280;20745;50.882;6.962;2023-03-13T00:14:09;99935.22;;;11.32;100.00
34500;BME280;20745;50.882;6.962;2023-03-13T00:16:35;99939.41;;;11.41;100.00
34500;BME280;20745;50.882;6.962;2023-03-13T00:19:03;99926.13;;;11.46;100.00
34500;BME280;20745;50.882;6.962;2023-03-13T00:21:31;99918.00;;;11.46;100.00
34500;BME280;20745;50.882;6.962;2023-03-13T00:23:59;99906.56;;;11.44;100.00
34500;BME280;20745;50.882;6.962;2023-03-13T00:26:26;99901.78;;;11.46;100.00
34500;BME280;20745;50.882;6.962;2023-03-13T00:28:53;99892.81;;;11.46;100.00
34500;BME280;20745;50.882;6.962;2023-03-13T00:31:23;99889.69;;;11.42;100.00
34500;BME280;20745;50.882;6.962;2023-03-13T00:33:53;99876.19;;;11.42;100.00
34500;BME280;20745;50.882;6.962;2023-03-13T00:36:38;99869.75;;;11.43;100.00
34500;BME280;20745;50.882;6.962;2023-03-13T00:39:05;99861.22;;;11.46;100.00
34500;BME280;20745;50.882;6.962;2023-03-13T00:41:32;99848.72;;;11.45;100.00
34500;BME280;20745;50.882;6.962;2023-03-13T00:43:59;99850.41;;;11.46;100.00
34500;BME280;20745;50.882;6.962;2023-03-13T00:46:27;99845.84;;;11.40;100.00
34500;BME280;20745;50.882;6.962;2023-03-13T00:48:55;99851.63;;;11.44;100.00
34500;BME280;20745;50.882;6.962;2023-03-13T00:51:22;99832.91;;;11.42;100.00
34500;BME280;20745;50.882;6.962;2023-03-13T00:53:49;99840.44;;;11.40;100.00
34500;BME280;20745;50.882;6.962;2023-03-13T00:56:17;99832.72;;;11.37;100.00
34500;BME280;20745;50.882;6.962;2023-03-13T00:58:45;99810.03;;;11.38;100.00
34500;BME280;20745;50.882;6.962;2023-03-13T01:01:21;99812.97;;;11.37;100.00
34500;BME280;20745;50.882;6.962;2023-03-13T01:03:53;99808.81;;;11.34;100.00
34500;BME280;20745;50.882;6.962;2023-03-13T01:06:22;99818.56;;;11.35;100.00
34500;BME280;20745;50.882;6.962;2023-03-13T01:08:49;99808.81;;;11.34;100.00
34500;BME280;20745;50.882;6.962;2023-03-13T01:11:18;99812.16;;;11.36;100.00
34500;BME280;20745;50.882;6.962;2023-03-13T01:13:46;99804.03;;;11.36;100.00
34500;BME280;20745;50.882;6.962;2023-03-13T01:16:18;99808.78;;;11.41;100.00
34500;BME280;20745;50.882;6.962;2023-03-13T01:18:48;99794.84;;;11.44;100.00
34500;BME280;20745;50.882;6.962;2023-03-13T01:21:15;99794.66;;;11.45;100.00
34500;BME280;20745;50.882;6.962;2023-03-13T01:23:42;99786.34;;;11.47;100.00
34500;BME280;20745;50.882;6.962;2023-03-13T01:26:08;99770.94;;;11.41;100.00
34500;BME280;20745;50.882;6.962;2023-03-13T01:28:35;99773.03;;;11.45;100.00
34500;BME280;20745;50.882;6.962;2023-03-13T01:31:16;99776.97;;;11.49;100.00
34500;BME280;20745;50.882;6.962;2023-03-13T01:33:45;99772.19;;;11.51;100.00
34500;BME280;20745;50.882;6.962;2023-03-13T01:36:12;99780.31;;;11.58;100.00
34500;BME280;20745;50.882;6.962;2023-03-13T01:38:39;99758.47;;;11.53;100.00
34500;BME280;20745;50.882;6.962;2023-03-13T01:41:07;99759.72;;;11.63;100.00
34500;BME280;20745;50.882;6.962;2023-03-13T01:43:35;99747.84;;;11.64;100.00
34500;BME280;20745;50.882;6.962;2023-03-13T01:51:09;99739.94;;;11.69;100.00
34500;BME280;20745;50.882;6.962;2023-03-13T01:53:39;99735.97;;;11.72;100.00
34500;BME280;20745;50.882;6.962;2023-03-13T01:56:10;99730.16;;;11.75;100.00
34500;BME280;20745;50.882;6.962;2023-03-13T01:58:38;99729.31;;;11.74;100.00
34500;BME280;20745;50.882;6.962;2023-03-13T02:01:05;99722.03;;;11.68;100.00
34500;BME280;20745;50.882;6.962;2023-03-13T02:03:34;99721.19;;;11.74;100.00
34500;BME280;20745;50.882;6.962;2023-03-13T02:06:03;99707.25;;;11.77;100.00
34500;BME280;20745;50.882;6.962;2023-03-13T02:08:35;99690.59;;;11.74;100.00
34500;BME280;20745;50.882;6.962;2023-03-13T02:14:03;99681.25;;;11.76;100.00
34500;BME280;20745;50.882;6.962;2023-03-13T02:16:32;99680.19;;;11.77;100.00
34500;BME280;20745;50.882;6.962;2023-03-13T02:19:00;99682.91;;;11.77;100.00
34500;BME280;20745;50.882;6.962;2023-03-13T02:21:41;99661.25;;;11.77;100.00
34500;BME280;20745;50.882;6.962;2023-03-13T02:24:20;99661.63;;;11.81;100.00
34500;BME280;20745;50.882;6.962;2023-03-13T02:26:50;99658.13;;;11.80;100.00
34500;BME280;20745;50.882;6.962;2023-03-13T02:29:17;99657.28;;;11.80;100.00
34500;BME280;20745;50.882;6.962;2023-03-13T02:31:45;99644.38;;;11.82;100.00
34500;BME280;20745;50.882;6.962;2023-03-13T02:34:14;99639.56;;;11.84;100.00
34500;BME280;20745;50.882;6.962;2023-03-13T02:36:43;99630.03;;;11.81;100.00
34500;BME280;20745;50.882;6.962;2023-03-13T02:39:12;99629.22;;;11.74;100.00
34500;BME280;20745;50.882;6.962;2023-03-13T02:41:40;99632.97;;;11.73;100.00
34500;BME280;20745;50.882;6.962;2023-03-13T02:44:07;99631.53;;;11.71;100.00
34500;BME280;20745;50.882;6.962;2023-03-13T02:46:50;99627.81;;;11.65;100.00
34500;BME280;20745;50.882;6.962;2023-03-13T02:49:26;99617.22;;;11.57;100.00
34500;BME280;20745;50.882;6.962;2023-03-13T02:51:56;99623.66;;;11.63;100.00
34500;BME280;20745;50.882;6.962;2023-03-13T02:54:32;99621.34;;;11.60;100.00
34500;BME280;20745;50.882;6.962;2023-03-13T02:57:02;99624.72;;;11.62;100.00
34500;BME280;20745;50.882;6.962;2023-03-13T02:59:29;99621.56;;;11.58;100.00
34500;BME280;20745;50.882;6.962;2023-03-13T03:01:55;99622.41;;;11.59;100.00
34500;BME280;20745;50.882;6.962;2023-03-13T03:04:24;99597.28;;;11.52;100.00
34500;BME280;20745;50.882;6.962;2023-03-13T03:06:51;99606.59;;;11.56;100.00
34500;BME280;20745;50.882;6.962;2023-03-13T03:09:18;99603.47;;;11.59;100.00
34500;BME280;20745;50.882;6.962;2023-03-13T03:11:45;99594.31;;;11.60;100.00
34500;BME280;20745;50.882;6.962;2023-03-13T03:14:12;99598.25;;;11.64;100.00
34500;BME280;20745;50.882;6.962;2023-03-13T03:16:39;99577.91;;;11.61;100.00
34500;BME280;20745;50.882;6.962;2023-03-13T03:19:06;99588.50;;;11.63;100.00
34500;BME280;20745;50.882;6.962;2023-03-13T03:21:33;99582.88;;;11.64;100.00
34500;BME280;20745;50.882;6.962;2023-03-13T03:24:00;99573.72;;;11.65;100.00
34500;BME280;20745;50.882;6.962;2023-03-13T03:26:26;99580.59;;;11.68;100.00
34500;BME280;20745;50.882;6.962;2023-03-13T03:28:53;99580.59;;;11.68;100.00
34500;BME280;20745;50.882;6.962;2023-03-13T03:31:20;99582.03;;;11.70;100.00
34500;BME280;20745;50.882;6.962;2023-03-13T03:33:46;99585.53;;;11.71;100.00
34500;BME280;20745;50.882;6.962;2023-03-13T03:36:16;99592.63;;;11.72;100.00
34500;BME280;20745;50.882;6.962;2023-03-13T03:38:43;99592.84;;;11.70;100.00
34500;BME280;20745;50.882;6.962;2023-03-13T03:41:11;99590.50;;;11.74;100.00
34500;BME280;20745;50.882;6.962;2023-03-13T03:43:38;99574.50;;;11.72;100.00
34500;BME280;20745;50.882;6.962;2023-03-13T03:46:04;99579.69;;;11.80;100.00
34500;BME280;20745;50.882;6.962;2023-03-13T03:48:31;99587.38;;;11.83;100.00
34500;BME280;20745;50.882;6.962;2023-03-13T03:50:58;99567.81;;;11.81;100.00
34500;BME280;20745;50.882;6.962;2023-03-13T03:53:25;99573.56;;;11.91;100.00
34500;BME280;20745;50.882;6.962;2023-03-13T03:55:51;99571.47;;;11.93;100.00
34500;BME280;20745;50.882;6.962;2023-03-13T03:58:18;99558.75;;;11.94;100.00
34500;BME280;20745;50.882;6.962;2023-03-13T04:00:45;99562.50;;;11.99;100.00
34500;BME280;20745;50.882;6.962;2023-03-13T04:03:13;99560.16;;;12.03;100.00
34500;BME280;20745;50.882;6.962;2023-03-13T04:05:40;99552.44;;;12.06;100.00
34500;BME280;20745;50.882;6.962;2023-03-13T04:08:07;99543.28;;;12.07;100.00
34500;BME280;20745;50.882;6.962;2023-03-13T04:10:34;99540.13;;;12.10;100.00
34500;BME280;20745;50.882;6.962;2023-03-13T04:13:00;99547.59;;;12.15;100.00
34500;BME280;20745;50.882;6.962;2023-03-13T04:15:27;99535.94;;;12.14;100.00
34500;BME280;20745;50.882;6.962;2023-03-13T04:17:54;99551.31;;;12.20;100.00
34500;BME280;20745;50.882;6.962;2023-03-13T04:20:20;99532.56;;;12.19;100.00
34500;BME280;20745;50.882;6.962;2023-03-13T04:22:47;99533.41;;;12.19;100.00
34500;BME280;20745;50.882;6.962;2023-03-13T04:25:13;99510.50;;;12.15;100.00
34500;BME280;20745;50.882;6.962;2023-03-13T04:27:40;99521.75;;;12.19;100.00
34500;BME280;20745;50.882;6.962;2023-03-13T04:30:07;99523.38;;;12.20;100.00
34500;BME280;20745;50.882;6.962;2023-03-13T04:32:33;99517.75;;;12.21;100.00
34500;BME280;20745;50.882;6.962;2023-03-13T04:35:00;99520.47;;;12.21;100.00
34500;BME280;20745;50.882;6.962;2023-03-13T04:37:26;99524.59;;;12.24;100.00
34500;BME280;20745;50.882;6.962;2023-03-13T04:39:53;99533.78;;;12.23;100.00
34500;BME280;20745;50.882;6.962;2023-03-13T04:42:19;99513.41;;;12.20;100.00
34500;BME280;20745;50.882;6.962;2023-03-13T04:44:46;99515.44;;;12.25;100.00
34500;BME280;20745;50.882;6.962;2023-03-13T04:47:12;99505.06;;;12.22;100.00
34500;BME280;20745;50.882;6.962;2023-03-13T04:49:39;99512.53;;;12.26;100.00
34500;BME280;20745;50.882;6.962;2023-03-13T04:52:05;99508.97;;;12.26;100.00
34500;BME280;20745;50.882;6.962;2023-03-13T04:54:32;99506.28;;;12.26;100.00
34500;BME280;20745;50.882;6.962;2023-03-13T04:56:58;99499.00;;;12.26;100.00
34500;BME280;20745;50.882;6.962;2023-03-13T04:59:25;99499.78;;;12.27;100.00
34500;BME280;20745;50.882;6.962;2023-03-13T05:01:51;99494.16;;;12.28;100.00
34500;BME280;20745;50.882;6.962;2023-03-13T05:04:18;99494.16;;;12.28;100.00
34500;BME280;20745;50.882;6.962;2023-03-13T05:06:44;99482.31;;;12.29;100.00
34500;BME280;20745;50.882;6.962;2023-03-13T05:09:11;99473.34;;;12.29;100.00
34500;BME280;20745;50.882;6.962;2023-03-13T05:11:37;99476.41;;;12.32;100.00
34500;BME280;20745;50.882;6.962;2023-03-13T05:14:05;99446.78;;;12.19;100.00
34500;BME280;20745;50.882;6.962;2023-03-13T05:16:34;99482.84;;;12.38;100.00
34500;BME280;20745;50.882;6.962;2023-03-13T05:19:00;99484.50;;;12.39;100.00
34500;BME280;20745;50.882;6.962;2023-03-13T05:21:27;99480.72;;;12.40;100.00
34500;BME280;20745;50.882;6.962;2023-03-13T05:23:53;99483.44;;;12.40;100.00
34500;BME280;20745;50.882;6.962;2023-03-13T05:26:20;99483.66;;;12.38;100.00
34500;BME280;20745;50.882;6.962;2023-03-13T05:28:46;99475.31;;;12.40;100.00
34500;BME280;20745;50.882;6.962;2023-03-13T05:31:13;99476.72;;;12.43;100.00
34500;BME280;20745;50.882;6.962;2023-03-13T05:33:39;99467.81;;;12.42;100.00
34500;BME280;20745;50.882;6.962;2023-03-13T05:36:06;99461.94;;;12.45;100.00
34500;BME280;20745;50.882;6.962;2023-03-13T05:38:33;99461.72;;;12.47;100.00
34500;BME280;20745;50.882;6.962;2023-03-13T05:40:59;99467.72;;;12.49;100.00
34500;BME280;20745;50.882;6.962;2023-03-13T05:43:26;99477.31;;;12.51;100.00
34500;BME280;20745;50.882;6.962;2023-03-13T05:45:52;99478.94;;;12.52;100.00
34500;BME280;20745;50.882;6.962;2023-03-13T05:48:19;99464.75;;;12.57;100.00
34500;BME280;20745;50.882;6.962;2023-03-13T05:50:45;99453.91;;;12.57;100.00
34500;BME280;20745;50.882;6.962;2023-03-13T05:53:12;99448.84;;;12.60;100.00
34500;BME280;20745;50.882;6.962;2023-03-13T05:55:38;99447.81;;;12.61;100.00
34500;BME280;20745;50.882;6.962;2023-03-13T05:58:05;99438.84;;;12.61;100.00
34500;BME280;20745;50.882;6.962;2023-03-13T06:00:31;99436.16;;;12.61;100.00
34500;BME280;20745;50.882;6.962;2023-03-13T06:02:58;99434.03;;;12.63;100.00
34500;BME280;20745;50.882;6.962;2023-03-13T06:05:25;99454.22;;;12.67;100.00
34500;BME280;20745;50.882;6.962;2023-03-13T06:07:51;99454.56;;;12.70;100.00
34500;BME280;20745;50.882;6.962;2023-03-13T06:10:18;99451.63;;;12.72;100.00
34500;BME280;20745;50.882;6.962;2023-03-13T06:12:51;99457.81;;;12.79;100.00
34500;BME280;20745;50.882;6.962;2023-03-13T06:15:17;99434.88;;;12.81;100.00
34500;BME280;20745;50.882;6.962;2023-03-13T06:17:44;99460.69;;;12.84;100.00
34500;BME280;20745;50.882;6.962;2023-03-13T06:20:11;99466.09;;;12.84;100.00
34500;BME280;20745;50.882;6.962;2023-03-13T06:22:37;99474.81;;;12.86;100.00
34500;BME280;20745;50.882;6.962;2023-03-13T06:25:04;99478.59;;;12.85;100.00
34500;BME280;20745;50.882;6.962;2023-03-13T06:27:31;99487.09;;;12.88;100.00
34500;BME280;20745;50.882;6.962;2023-03-13T06:29:57;99484.97;;;12.90;100.00
34500;BME280;20745;50.882;6.962;2023-03-13T06:32:24;99485.59;;;12.92;100.00
34500;BME280;20745;50.882;6.962;2023-03-13T06:34:50;99471.34;;;12.97;100.00
34500;BME280;20745;50.882;6.962;2023-03-13T06:37:17;99478.84;;;13.01;100.00
34500;BME280;20745;50.882;6.962;2023-03-13T06:39:44;99473.44;;;13.01;100.00
34500;BME280;20745;50.882;6.962;2023-03-13T06:42:10;99485.69;;;13.04;100.00
34500;BME280;20745;50.882;6.962;2023-03-13T06:44:37;99478.75;;;13.08;100.00
34500;BME280;20745;50.882;6.962;2023-03-13T06:47:03;99480.78;;;13.12;100.00
34500;BME280;20745;50.882;6.962;2023-03-13T06:49:30;99491.97;;;13.16;100.00
34500;BME280;20745;50.882;6.962;2023-03-13T06:51:57;99493.44;;;13.18;100.00
34500;BME280;20745;50.882;6.962;2023-03-13T06:54:24;99488.59;;;13.20;100.00
34500;BME280;20745;50.882;6.962;2023-03-13T06:56:50;99493.22;;;13.20;100.00
34500;BME280;20745;50.882;6.962;2023-03-13T06:59:17;99488.00;;;13.18;100.00
34500;BME280;20745;50.882;6.962;2023-03-13T07:01:43;99496.03;;;13.25;100.00
34500;BME280;20745;50.882;6.962;2023-03-13T07:04:12;99495.59;;;13.28;100.00
34500;BME280;20745;50.882;6.962;2023-03-13T07:06:39;99493.84;;;13.33;100.00
34500;BME280;20745;50.882;6.962;2023-03-13T07:09:05;99499.28;;;13.33;100.00
34500;BME280;20745;50.882;6.962;2023-03-13T07:11:32;99502.59;;;13.35;100.00
34500;BME280;20745;50.882;6.962;2023-03-13T07:13:58;99497.16;;;13.35;100.00
34500;BME280;20745;50.882;6.962;2023-03-13T07:16:41;99503.41;;;13.36;100.00
34500;BME280;20745;50.882;6.962;2023-03-13T07:19:07;99499.19;;;13.40;100.00
34500;BME280;20745;50.882;6.962;2023-03-13T07:21:34;99494.34;;;13.42;100.00
34500;BME280;20745;50.882;6.962;2023-03-13T07:24:00;99502.41;;;13.48;100.00
34500;BME280;20745;50.882;6.962;2023-03-13T07:26:27;99497.94;;;13.54;100.00
34500;BME280;20745;50.882;6.962;2023-03-13T07:28:54;99500.22;;;13.57;100.00
34500;BME280;20745;50.882;6.962;2023-03-13T07:31:22;99510.59;;;13.60;100.00
34500;BME280;20745;50.882;6.962;2023-03-13T07:33:50;99506.94;;;13.66;100.00
34500;BME280;20745;50.882;6.962;2023-03-13T07:36:21;99506.94;;;13.66;100.00
34500;BME280;20745;50.882;6.962;2023-03-13T07:38:49;99498.34;;;13.69;100.00
34500;BME280;20745;50.882;6.962;2023-03-13T07:41:17;99491.88;;;13.70;100.00
34500;BME280;20745;50.882;6.962;2023-03-13T07:43:45;99491.53;;;13.78;100.00
34500;BME280;20745;50.882;6.962;2023-03-13T07:46:15;99477.63;;;13.86;100.00
34500;BME280;20745;50.882;6.962;2023-03-13T07:48:44;99469.28;;;13.99;100.00
34500;BME280;20745;50.882;6.962;2023-03-13T07:51:19;99472.69;;;14.06;100.00
34500;BME280;20745;50.882;6.962;2023-03-13T07:54:02;99456.78;;;14.09;100.00
34500;BME280;20745;50.882;6.962;2023-03-13T07:56:28;99456.97;;;14.26;100.00
34500;BME280;20745;50.882;6.962;2023-03-13T07:58:55;99463.19;;;14.26;100.00
34500;BME280;20745;50.882;6.962;2023-03-13T08:01:26;99459.69;;;14.26;100.00
34500;BME280;20745;50.882;6.962;2023-03-13T08:03:56;99467.81;;;14.26;100.00
34500;BME280;20745;50.882;6.962;2023-03-13T08:06:25;99465.69;;;14.28;100.00
34500;BME280;20745;50.882;6.962;2023-03-13T08:08:52;99462.88;;;14.23;100.00
34500;BME280;20745;50.882;6.962;2023-03-13T08:11:23;99459.97;;;14.18;100.00
34500;BME280;20745;50.882;6.962;2023-03-13T08:13:51;99452.53;;;14.13;100.00
34500;BME280;20745;50.882;6.962;2023-03-13T08:16:23;99447.00;;;14.08;100.00
34500;BME280;20745;50.882;6.962;2023-03-13T08:18:54;99458.44;;;14.10;100.00
34500;BME280;20745;50.882;6.962;2023-03-13T08:21:23;99446.06;;;14.03;100.00
34500;BME280;20745;50.882;6.962;2023-03-13T08:23:55;99455.38;;;14.07;100.00
34500;BME280;20745;50.882;6.962;2023-03-13T08:26:24;99450.97;;;14.06;100.00
34500;BME280;20745;50.882;6.962;2023-03-13T08:29:02;99457.63;;;14.10;100.00
34500;BME280;20745;50.882;6.962;2023-03-13T08:31:37;99448.41;;;14.11;100.00
34500;BME280;20745;50.882;6.962;2023-03-13T08:34:04;99447.81;;;14.09;100.00
34500;BME280;20745;50.882;6.962;2023-03-13T08:36:35;99445.47;;;14.12;100.00
34500;BME280;20745;50.882;6.962;2023-03-13T08:39:04;99438.84;;;14.20;100.00
34500;BME280;20745;50.882;6.962;2023-03-13T08:41:33;99445.84;;;14.27;100.00
34500;BME280;20745;50.882;6.962;2023-03-13T08:44:03;99440.16;;;14.29;100.00
34500;BME280;20745;50.882;6.962;2023-03-13T08:46:31;99442.06;;;14.28;100.00
34500;BME280;20745;50.882;6.962;2023-03-13T08:48:59;99445.59;;;14.29;100.00
34500;BME280;20745;50.882;6.962;2023-03-13T08:51:26;99432.53;;;14.26;100.00
34500;BME280;20745;50.882;6.962;2023-03-13T08:53:54;99434.75;;;14.29;100.00
34500;BME280;20745;50.882;6.962;2023-03-13T08:56:23;99433.22;;;14.33;100.00
34500;BME280;20745;50.882;6.962;2023-03-13T08:58:52;99437.13;;;14.37;100.00
34500;BME280;20745;50.882;6.962;2023-03-13T09:01:20;99438.75;;;14.38;100.00
34500;BME280;20745;50.882;6.962;2023-03-13T09:03:47;99439.13;;;14.41;100.00
34500;BME280;20745;50.882;6.962;2023-03-13T09:06:13;99437.13;;;14.37;100.00
34500;BME280;20745;50.882;6.962;2023-03-13T09:08:40;99431.44;;;14.38;100.00
34500;BME280;20745;50.882;6.962;2023-03-13T09:11:10;99433.94;;;14.40;100.00
34500;BME280;20745;50.882;6.962;2023-03-13T09:13:40;99434.03;;;14.45;100.00
34500;BME280;20745;50.882;6.962;2023-03-13T09:16:09;99428.72;;;14.50;100.00
34500;BME280;20745;50.882;6.962;2023-03-13T09:18:37;99427.66;;;14.51;100.00
34500;BME280;20745;50.882;6.962;2023-03-13T09:21:10;99438.03;;;14.54;100.00
34500;BME280;20745;50.882;6.962;2023-03-13T09:23:37;99423.75;;;14.47;100.00
34500;BME280;20745;50.882;6.962;2023-03-13T09:26:04;99427.88;;;14.49;100.00
34500;BME280;20745;50.882;6.962;2023-03-13T09:28:30;99429.75;;;14.49;100.00
34500;BME280;20745;50.882;6.962;2023-03-13T09:31:18;99426.25;;;14.48;100.00
34500;BME280;20745;50.882;6.962;2023-03-13T09:33:46;99417.38;;;14.53;100.00
34500;BME280;20745;50.882;6.962;2023-03-13T09:36:13;99414.66;;;14.53;100.00
34500;BME280;20745;50.882;6.962;2023-03-13T09:38:40;99413.00;;;14.52;100.00
34500;BME280;20745;50.882;6.962;2023-03-13T09:43:59;99422.69;;;14.48;100.00
34500;BME280;20745;50.882;6.962;2023-03-13T09:46:36;99408.53;;;14.46;100.00
34500;BME280;20745;50.882;6.962;2023-03-13T09:49:12;99408.03;;;14.49;100.00
34500;BME280;20745;50.882;6.962;2023-03-13T09:51:45;99405.56;;;14.47;100.00
34500;BME280;20745;50.882;6.962;2023-03-13T09:57:16;99401.06;;;14.53;100.00
34500;BME280;20745;50.882;6.962;2023-03-13T09:59:49;99397.38;;;14.59;100.00
34500;BME280;20745;50.882;6.962;2023-03-13T10:02:34;99392.31;;;14.62;100.00
34500;BME280;20745;50.882;6.962;2023-03-13T10:05:09;99400.06;;;14.70;100.00
34500;BME280;20745;50.882;6.962;2023-03-13T10:07:38;99390.59;;;14.85;100.00
34500;BME280;20745;50.882;6.962;2023-03-13T10:10:33;99390.66;;;15.01;100.00
34500;BME280;20745;50.882;6.962;2023-03-13T10:13:03;99379.72;;;15.13;100.00
34500;BME280;20745;50.882;6.962;2023-03-13T10:15:45;99380.56;;;15.13;100.00
34500;BME280;20745;50.882;6.962;2023-03-13T10:18:18;99378.91;;;15.12;100.00
34500;BME280;20745;50.882;6.962;2023-03-13T10:20:52;99376.66;;;15.09;100.00
34500;BME280;20745;50.882;6.962;2023-03-13T10:23:34;99373.09;;;15.20;100.00
34500;BME280;20745;50.882;6.962;2023-03-13T10:26:03;99364.38;;;15.35;100.00
34500;BME280;20745;50.882;6.962;2023-03-13T10:28:30;99368.03;;;15.40;100.00
34500;BME280;20745;50.882;6.962;2023-03-13T10:31:20;99357.66;;;15.54;100.00
34500;BME280;20745;50.882;6.962;2023-03-13T10:33:50;99354.19;;;15.58;100.00
34500;BME280;20745;50.882;6.962;2023-03-13T10:36:18;99350.06;;;15.72;100.00
34500;BME280;20745;50.882;6.962;2023-03-13T10:38:52;99345.31;;;15.79;100.00
34500;BME280;20745;50.882;6.962;2023-03-13T10:41:30;99349.09;;;15.95;100.00
34500;BME280;20745;50.882;6.962;2023-03-13T10:43:59;99347.91;;;15.91;100.00
34500;BME280;20745;50.882;6.962;2023-03-13T10:46:31;99342.47;;;15.91;100.00
34500;BME280;20745;50.882;6.962;2023-03-13T10:49:03;99337.34;;;15.94;100.00
34500;BME280;20745;50.882;6.962;2023-03-13T10:51:45;99301.75;;;15.79;100.00
34500;BME280;20745;50.882;6.962;2023-03-13T10:54:15;99342.13;;;16.04;100.00
34500;BME280;20745;50.882;6.962;2023-03-13T10:56:48;99326.13;;;16.07;100.00
34500;BME280;20745;50.882;6.962;2023-03-13T10:59:23;99336.50;;;16.10;100.00
34500;BME280;20745;50.882;6.962;2023-03-13T11:01:51;99326.69;;;16.09;100.00
34500;BME280;20745;50.882;6.962;2023-03-13T11:07:02;99314.16;;;16.30;100.00
34500;BME280;20745;50.882;6.962;2023-03-13T11:09:29;99304.72;;;16.37;100.00
34500;BME280;20745;50.882;6.962;2023-03-13T11:12:06;99294.09;;;16.36;100.00
34500;BME280;20745;50.882;6.962;2023-03-13T11:14:35;99298.69;;;16.35;100.00
34500;BME280;20745;50.882;6.962;2023-03-13T11:17:10;99280.78;;;16.39;100.00
34500;BME280;20745;50.882;6.962;2023-03-13T11:19:52;99289.13;;;16.49;100.00
34500;BME280;20745;50.882;6.962;2023-03-13T11:22:38;99289.25;;;16.59;100.00
34500;BME280;20745;50.882;6.962;2023-03-13T11:43:19;99216.28;;;17.30;100.00
34500;BME280;20745;50.882;6.962;2023-03-13T11:46:28;99224.22;;;17.31;100.00
34500;BME280;20745;50.882;6.962;2023-03-13T11:57:31;99211.28;;;16.90;100.00
34500;BME280;20745;50.882;6.962;2023-03-13T12:00:43;99185.47;;;16.97;100.00
34500;BME280;20745;50.882;6.962;2023-03-13T12:03:26;99192.03;;;17.01;100.00
34500;BME280;20745;50.882;6.962;2023-03-13T12:05:58;99189.56;;;17.00;100.00
34500;BME280;20745;50.882;6.962;2023-03-13T12:08:28;99176.09;;;16.88;100.00
34500;BME280;20745;50.882;6.962;2023-03-13T12:11:12;99172.91;;;16.96;100.00
34500;BME280;20745;50.882;6.962;2023-03-13T12:13:43;99183.84;;;17.01;100.00
34500;BME280;20745;50.882;6.962;2023-03-13T12:16:16;99178.13;;;16.98;100.00
34500;BME280;20745;50.882;6.962;2023-03-13T12:18:45;99181.97;;;17.07;100.00
34500;BME280;20745;50.882;6.962;2023-03-13T12:21:21;99184.84;;;17.22;100.00
34500;BME280;20745;50.882;6.962;2023-03-13T12:24:11;99187.41;;;17.39;100.00
34500;BME280;20745;50.882;6.962;2023-03-13T12:26:56;99178.41;;;17.38;100.00
34500;BME280;20745;50.882;6.962;2023-03-13T12:29:39;99169.38;;;17.33;100.00
34500;BME280;20745;50.882;6.962;2023-03-13T12:32:15;99159.78;;;17.25;100.00
34500;BME280;20745;50.882;6.962;2023-03-13T12:35:16;99160.31;;;17.27;100.00
34500;BME280;20745;50.882;6.962;2023-03-13T12:38:22;99164.44;;;17.30;100.00
34500;BME280;20745;50.882;6.962;2023-03-13T12:43:47;99152.44;;;17.31;100.00
34500;BME280;20745;50.882;6.962;2023-03-13T12:58:29;99142.63;;;17.35;100.00
34500;BME280;20745;50.882;6.962;2023-03-13T13:01:04;99124.19;;;17.47;100.00
34500;BME280;20745;50.882;6.962;2023-03-13T13:03:38;99113.84;;;17.54;100.00
34500;BME280;20745;50.882;6.962;2023-03-13T13:06:14;99114.13;;;17.52;100.00
34500;BME280;20745;50.882;6.962;2023-03-13T13:17:44;99106.19;;;17.51;100.00
34500;BME280;20745;50.882;6.962;2023-03-13T13:19:50;99114.91;;;17.48;100.00
34500;BME280;20745;50.882;6.962;2023-03-13T13:30:26;99078.13;;;17.14;100.00
34500;BME280;20745;50.882;6.962;2023-03-13T13:33:34;99082.41;;;17.04;100.00
34500;BME280;20745;50.882;6.962;2023-03-13T13:35:40;99076.44;;;17.08;100.00
34500;BME280;20745;50.882;6.962;2023-03-13T13:40:59;99077.53;;;17.12;100.00
34500;BME280;20745;50.882;6.962;2023-03-13T13:43:30;99078.06;;;17.03;100.00
34500;BME280;20745;50.882;6.962;2023-03-13T13:46:05;99064.38;;;16.98;100.00
34500;BME280;20745;50.882;6.962;2023-03-13T13:48:42;99057.19;;;16.82;100.00
34500;BME280;20745;50.882;6.962;2023-03-13T14:01:25;99036.09;;;17.15;100.00
34500;BME280;20745;50.882;6.962;2023-03-13T14:03:53;99032.00;;;17.17;100.00
34500;BME280;20745;50.882;6.962;2023-03-13T14:06:29;99036.16;;;17.25;100.00
34500;BME280;20745;50.882;6.962;2023-03-13T14:09:09;99030.69;;;17.25;100.00
34500;BME280;20745;50.882;6.962;2023-03-13T14:11:37;99010.28;;;17.32;100.00
34500;BME280;20745;50.882;6.962;2023-03-13T14:14:18;98996.44;;;17.44;100.00
34500;BME280;20745;50.882;6.962;2023-03-13T14:16:47;98991.50;;;17.46;100.00
34500;BME280;20745;50.882;6.962;2023-03-13T14:19:28;98997.03;;;17.61;100.00
34500;BME280;20745;50.882;6.962;2023-03-13T14:22:06;98989.94;;;17.60;100.00
34500;BME280;20745;50.882;6.962;2023-03-13T14:24:33;98976.25;;;17.50;100.00
34500;BME280;20745;50.882;6.962;2023-03-13T14:27:00;98974.91;;;17.57;100.00
34500;BME280;20745;50.882;6.962;2023-03-13T14:29:27;98971.91;;;17.54;100.00
34500;BME280;20745;50.882;6.962;2023-03-13T14:31:58;98947.25;;;17.34;100.00
34500;BME280;20745;50.882;6.962;2023-03-13T14:34:26;98980.91;;;17.49;100.00